createdAt,value
2018-09-03T00:00:02.564Z,802.05
2018-09-03T00:00:06.441Z,802.08
2018-09-03T00:00:10.639Z,802.11
2018-09-03T00:00:14.738Z,802.07
2018-09-03T00:00:18.939Z,802.07
2018-09-03T00:00:23.130Z,802.07
2018-09-03T00:00:27.463Z,802.05
2018-09-03T00:00:31.560Z,802.05
2018-09-03T00:00:35.546Z,802.09
2018-09-03T00:00:39.842Z,802.08
2018-09-03T00:00:43.933Z,802.06
2018-09-03T00:00:48.024Z,802.06
2018-09-03T00:00:52.334Z,802.06
2018-09-03T00:00:56.632Z,802.04
2018-09-03T00:01:00.828Z,802.06
2018-09-03T00:01:04.909Z,802.06
2018-09-03T00:01:09.111Z,802
2018-09-03T00:01:13.306Z,802.03
2018-09-03T00:01:17.502Z,802.06
2018-09-03T00:01:21.592Z,802.01
2018-09-03T00:01:25.579Z,802.01
2018-09-03T00:01:29.672Z,802.03
2018-09-03T00:01:33.873Z,802.05
2018-09-03T00:01:38.076Z,802.05
2018-09-03T00:01:42.279Z,802
2018-09-03T00:01:46.379Z,802.03
2018-09-03T00:01:50.476Z,802.02
2018-09-03T00:01:54.570Z,801.99
2018-09-03T00:01:58.871Z,802
2018-09-03T00:02:02.968Z,802
2018-09-03T00:02:07.171Z,802.02
2018-09-03T00:02:11.473Z,802.01
2018-09-03T00:02:15.569Z,802.03
2018-09-03T00:02:19.773Z,802
2018-09-03T00:02:23.970Z,801.99
2018-09-03T00:02:27.949Z,801.99
2018-09-03T00:02:32.141Z,801.97
2018-09-03T00:02:36.361Z,801.97
2018-09-03T00:02:40.567Z,801.96
2018-09-03T00:02:44.761Z,801.97
2018-09-03T00:02:48.749Z,801.96
2018-09-03T00:02:52.836Z,801.96
2018-09-03T00:02:57.145Z,801.98
2018-09-03T00:03:01.345Z,801.95
2018-09-03T00:03:05.223Z,801.97
2018-09-03T00:03:09.526Z,801.97
2018-09-03T00:03:13.829Z,801.94
2018-09-03T00:03:18.128Z,801.94
2018-09-03T00:03:22.319Z,801.91
2018-09-03T00:03:26.619Z,801.94
2018-09-03T00:03:30.705Z,801.92
2018-09-03T00:03:35.013Z,801.94
2018-09-03T00:03:39.102Z,801.91
2018-09-03T00:03:43.304Z,801.92
2018-09-03T00:03:47.497Z,801.91
2018-09-03T00:03:51.480Z,801.89
2018-09-03T00:03:55.468Z,801.88
2018-09-03T00:03:59.557Z,801.86
2018-09-03T00:04:03.771Z,801.86
2018-09-03T00:04:07.860Z,801.86
2018-09-03T00:04:12.171Z,801.88
2018-09-03T00:04:16.264Z,801.83
2018-09-03T00:04:20.146Z,801.85
2018-09-03T00:04:24.244Z,801.82
2018-09-03T00:04:28.445Z,801.81
2018-09-03T00:04:32.429Z,801.81
2018-09-03T00:04:36.517Z,801.82
2018-09-03T00:04:40.628Z,801.83
2018-09-03T00:04:44.828Z,801.8
2018-09-03T00:04:49.138Z,801.82
2018-09-03T00:04:53.350Z,801.79
2018-09-03T00:04:57.442Z,801.78
2018-09-03T00:05:01.646Z,801.79
2018-09-03T00:05:05.869Z,801.75
2018-09-03T00:05:10.172Z,801.76
2018-09-03T00:05:14.263Z,801.77
2018-09-03T00:05:18.390Z,801.76
2018-09-03T00:05:22.276Z,801.75
2018-09-03T00:05:26.471Z,801.77
2018-09-03T00:05:30.571Z,801.77
2018-09-03T00:05:34.666Z,801.8
2018-09-03T00:05:38.981Z,801.77
2018-09-03T00:05:43.171Z,801.78
2018-09-03T00:05:47.263Z,801.78
2018-09-03T00:05:51.355Z,801.72
2018-09-03T00:05:55.661Z,801.76
2018-09-03T00:05:59.854Z,801.75
2018-09-03T00:06:03.945Z,801.72
2018-09-03T00:06:08.264Z,801.74
2018-09-03T00:06:12.353Z,801.67
2018-09-03T00:06:16.374Z,801.69
2018-09-03T00:06:20.566Z,801.71
2018-09-03T00:06:24.768Z,801.71
2018-09-03T00:06:28.967Z,801.7
2018-09-03T00:06:33.162Z,801.69
2018-09-03T00:06:37.364Z,801.73
2018-09-03T00:06:41.453Z,801.7
2018-09-03T00:06:45.655Z,801.66
2018-09-03T00:06:49.748Z,801.64
2018-09-03T00:06:53.863Z,801.65
2018-09-03T00:06:58.057Z,801.65
2018-09-03T00:07:02.154Z,801.65
2018-09-03T00:07:06.362Z,801.63
2018-09-03T00:07:10.454Z,801.63
2018-09-03T00:07:14.544Z,801.6
2018-09-03T00:07:18.528Z,801.64
2018-09-03T00:07:22.511Z,801.62
2018-09-03T00:07:26.603Z,801.62
2018-09-03T00:07:30.807Z,801.6
2018-09-03T00:07:34.897Z,801.6
2018-09-03T00:07:39.093Z,801.55
2018-09-03T00:07:43.465Z,801.57
2018-09-03T00:07:47.671Z,801.57
2018-09-03T00:07:51.766Z,801.57
2018-09-03T00:07:55.860Z,801.57
2018-09-03T00:08:00.054Z,801.51
2018-09-03T00:08:04.400Z,801.49
2018-09-03T00:08:08.708Z,801.56
2018-09-03T00:08:12.798Z,801.52
2018-09-03T00:08:16.884Z,801.5
2018-09-03T00:08:21.083Z,801.53
2018-09-03T00:08:25.283Z,801.57
2018-09-03T00:08:29.588Z,801.54
2018-09-03T00:08:33.587Z,801.56
2018-09-03T00:08:37.676Z,801.54
2018-09-03T00:08:41.976Z,801.51
2018-09-03T00:08:46.183Z,801.55
2018-09-03T00:08:50.271Z,801.54
2018-09-03T00:08:54.360Z,801.55
2018-09-03T00:08:58.560Z,801.56
2018-09-03T00:09:02.810Z,801.55
2018-09-03T00:09:06.795Z,801.52
2018-09-03T00:09:11.105Z,801.53
2018-09-03T00:09:15.306Z,801.53
2018-09-03T00:09:19.410Z,801.56
2018-09-03T00:09:23.500Z,801.57
2018-09-03T00:09:27.696Z,801.54
2018-09-03T00:09:31.683Z,801.54
2018-09-03T00:09:35.666Z,801.53
2018-09-03T00:09:39.755Z,801.56
2018-09-03T00:09:44.054Z,801.56
2018-09-03T00:09:48.401Z,801.54
2018-09-03T00:09:52.601Z,801.57
2018-09-03T00:09:56.907Z,801.56
2018-09-03T00:10:00.890Z,801.56
2018-09-03T00:10:04.872Z,801.51
2018-09-03T00:10:08.966Z,801.55
2018-09-03T00:10:13.157Z,801.53
2018-09-03T00:10:17.348Z,801.55
2018-09-03T00:10:21.652Z,801.52
2018-09-03T00:10:25.872Z,801.52
2018-09-03T00:10:30.077Z,801.57
2018-09-03T00:10:34.279Z,801.56
2018-09-03T00:10:38.477Z,801.56
2018-09-03T00:10:42.674Z,801.52
2018-09-03T00:10:46.651Z,801.52
2018-09-03T00:10:50.851Z,801.52
2018-09-03T00:10:55.152Z,801.54
2018-09-03T00:10:59.347Z,801.51
2018-09-03T00:11:03.545Z,801.51
2018-09-03T00:11:07.632Z,801.47
2018-09-03T00:11:11.823Z,801.5
2018-09-03T00:11:16.028Z,801.49
2018-09-03T00:11:20.226Z,801.46
2018-09-03T00:11:24.355Z,801.49
2018-09-03T00:11:28.346Z,801.49
2018-09-03T00:11:32.550Z,801.48
2018-09-03T00:11:36.743Z,801.49
2018-09-03T00:11:40.935Z,801.4
2018-09-03T00:11:45.022Z,801.43
2018-09-03T00:11:49.230Z,801.47
2018-09-03T00:11:53.421Z,801.46
2018-09-03T00:11:57.617Z,801.42
2018-09-03T00:12:01.502Z,801.43
2018-09-03T00:12:05.862Z,801.39
2018-09-03T00:12:09.951Z,801.39
2018-09-03T00:12:14.152Z,801.38
2018-09-03T00:12:18.459Z,801.35
2018-09-03T00:12:22.763Z,801.36
2018-09-03T00:12:26.860Z,801.37
2018-09-03T00:12:31.064Z,801.35
2018-09-03T00:12:35.269Z,801.35
2018-09-03T00:12:39.359Z,801.31
2018-09-03T00:12:43.659Z,801.31
2018-09-03T00:12:47.646Z,801.31
2018-09-03T00:12:51.888Z,801.31
2018-09-03T00:12:55.988Z,801.31
2018-09-03T00:13:00.086Z,801.27
2018-09-03T00:13:04.396Z,801.31
2018-09-03T00:13:08.486Z,801.33
2018-09-03T00:13:12.681Z,801.32
2018-09-03T00:13:16.774Z,801.33
2018-09-03T00:13:20.975Z,801.29
2018-09-03T00:13:25.170Z,801.31
2018-09-03T00:13:29.364Z,801.35
2018-09-03T00:13:33.457Z,801.32
2018-09-03T00:13:37.762Z,801.34
2018-09-03T00:13:41.959Z,801.33
2018-09-03T00:13:45.943Z,801.34
2018-09-03T00:13:50.035Z,801.33
2018-09-03T00:13:54.343Z,801.36
2018-09-03T00:13:58.549Z,801.34
2018-09-03T00:14:02.535Z,801.38
2018-09-03T00:14:06.633Z,801.35
2018-09-03T00:14:10.939Z,801.35
2018-09-03T00:14:15.144Z,801.32
2018-09-03T00:14:19.342Z,801.39
2018-09-03T00:14:23.454Z,801.37
2018-09-03T00:14:27.559Z,801.39
2018-09-03T00:14:31.868Z,801.35
2018-09-03T00:14:35.963Z,801.35
2018-09-03T00:14:40.162Z,801.34
2018-09-03T00:14:44.357Z,801.37
2018-09-03T00:14:48.454Z,801.33
2018-09-03T00:14:52.768Z,801.38
2018-09-03T00:14:56.961Z,801.32
2018-09-03T00:15:01.267Z,801.35
2018-09-03T00:15:05.253Z,801.31
2018-09-03T00:15:09.341Z,801.28
2018-09-03T00:15:13.217Z,801.37
2018-09-03T00:15:17.515Z,801.35
2018-09-03T00:15:21.611Z,801.36
2018-09-03T00:15:25.917Z,801.37
2018-09-03T00:15:30.221Z,801.37
2018-09-03T00:15:34.421Z,801.35
2018-09-03T00:15:38.722Z,801.32
2018-09-03T00:15:42.729Z,801.34
2018-09-03T00:15:46.937Z,801.36
2018-09-03T00:15:51.243Z,801.32
2018-09-03T00:15:55.337Z,801.33
2018-09-03T00:15:59.432Z,801.27
2018-09-03T00:16:03.782Z,801.28
2018-09-03T00:16:07.661Z,801.3
2018-09-03T00:16:11.752Z,801.29
2018-09-03T00:16:15.952Z,801.34
2018-09-03T00:16:19.829Z,801.34
2018-09-03T00:16:23.920Z,801.33
2018-09-03T00:16:28.007Z,801.29
2018-09-03T00:16:32.103Z,801.34
2018-09-03T00:16:36.309Z,801.36
2018-09-03T00:16:40.617Z,801.3
2018-09-03T00:16:44.821Z,801.33
2018-09-03T00:16:48.919Z,801.31
2018-09-03T00:16:52.803Z,801.3
2018-09-03T00:16:56.898Z,801.35
2018-09-03T00:17:00.991Z,801.35
2018-09-03T00:17:05.084Z,801.33
2018-09-03T00:17:09.175Z,801.36
2018-09-03T00:17:13.279Z,801.33
2018-09-03T00:17:17.259Z,801.32
2018-09-03T00:17:21.568Z,801.27
2018-09-03T00:17:25.875Z,801.28
2018-09-03T00:17:30.087Z,801.34
2018-09-03T00:17:34.288Z,801.31
2018-09-03T00:17:38.483Z,801.32
2018-09-03T00:17:42.569Z,801.31
2018-09-03T00:17:46.876Z,801.32
2018-09-03T00:17:51.183Z,801.33
2018-09-03T00:17:55.379Z,801.33
2018-09-03T00:17:59.470Z,801.26
2018-09-03T00:18:03.677Z,801.33
2018-09-03T00:18:07.878Z,801.34
2018-09-03T00:18:12.182Z,801.31
2018-09-03T00:18:16.486Z,801.32
2018-09-03T00:18:20.365Z,801.33
2018-09-03T00:18:24.672Z,801.32
2018-09-03T00:18:28.765Z,801.31
2018-09-03T00:18:32.755Z,801.31
2018-09-03T00:18:37.060Z,801.24
2018-09-03T00:18:41.259Z,801.31
2018-09-03T00:18:45.347Z,801.26
2018-09-03T00:18:49.544Z,801.32
2018-09-03T00:18:53.740Z,801.32
2018-09-03T00:18:57.726Z,801.27
2018-09-03T00:19:02.043Z,801.29
2018-09-03T00:19:06.347Z,801.26
2018-09-03T00:19:10.336Z,801.27
2018-09-03T00:19:14.323Z,801.26
2018-09-03T00:19:18.629Z,801.24
2018-09-03T00:19:22.832Z,801.21
2018-09-03T00:19:26.828Z,801.21
2018-09-03T00:19:30.917Z,801.2
2018-09-03T00:19:35.116Z,801.2
2018-09-03T00:19:39.426Z,801.17
2018-09-03T00:19:43.625Z,801.19
2018-09-03T00:19:47.724Z,801.18
2018-09-03T00:19:51.812Z,801.18
2018-09-03T00:19:56.024Z,801.16
2018-09-03T00:20:00.224Z,801.17
2018-09-03T00:20:04.435Z,801.15
2018-09-03T00:20:08.558Z,801.18
2018-09-03T00:20:12.860Z,801.15
2018-09-03T00:20:16.849Z,801.14
2018-09-03T00:20:21.052Z,801.16
2018-09-03T00:20:25.250Z,801.14
2018-09-03T00:20:29.556Z,801.16
2018-09-03T00:20:33.765Z,801.15
2018-09-03T00:20:37.970Z,801.12
2018-09-03T00:20:42.272Z,801.12
2018-09-03T00:20:46.579Z,801.08
2018-09-03T00:20:50.776Z,801.11
2018-09-03T00:20:55.099Z,801.11
2018-09-03T00:20:59.437Z,801.11
2018-09-03T00:21:03.634Z,801.07
2018-09-03T00:21:07.840Z,801.06
2018-09-03T00:21:12.145Z,801.08
2018-09-03T00:21:16.136Z,801.1
2018-09-03T00:21:20.328Z,801.05
2018-09-03T00:21:24.631Z,801.03
2018-09-03T00:21:28.826Z,801.01
2018-09-03T00:21:32.918Z,801.05
2018-09-03T00:21:37.115Z,801.06
2018-09-03T00:21:41.201Z,801.06
2018-09-03T00:21:45.417Z,801.04
2018-09-03T00:21:49.531Z,801.06
2018-09-03T00:21:53.730Z,801.04
2018-09-03T00:21:58.029Z,801.04
2018-09-03T00:22:02.280Z,801.03
2018-09-03T00:22:06.471Z,801.05
2018-09-03T00:22:10.560Z,801.01
2018-09-03T00:22:14.653Z,801
2018-09-03T00:22:18.848Z,801.03
2018-09-03T00:22:23.045Z,801.01
2018-09-03T00:22:27.255Z,801.02
2018-09-03T00:22:31.453Z,801.01
2018-09-03T00:22:35.756Z,801.03
2018-09-03T00:22:39.954Z,801.01
2018-09-03T00:22:44.152Z,801.02
2018-09-03T00:22:48.463Z,801.02
2018-09-03T00:22:52.552Z,801
2018-09-03T00:22:56.759Z,801.01
2018-09-03T00:23:00.746Z,801.01
2018-09-03T00:23:04.888Z,801.02
2018-09-03T00:23:08.996Z,801.01
2018-09-03T00:23:13.194Z,800.97
2018-09-03T00:23:17.405Z,801
2018-09-03T00:23:21.605Z,800.94
2018-09-03T00:23:25.702Z,800.97
2018-09-03T00:23:29.900Z,801
2018-09-03T00:23:34.109Z,801
2018-09-03T00:23:38.320Z,800.96
2018-09-03T00:23:42.619Z,800.99
2018-09-03T00:23:46.818Z,800.96
2018-09-03T00:23:51.120Z,800.97
2018-09-03T00:23:55.423Z,800.95
2018-09-03T00:23:59.627Z,800.95
2018-09-03T00:24:03.874Z,800.97
2018-09-03T00:24:07.862Z,800.97
2018-09-03T00:24:12.063Z,800.94
2018-09-03T00:24:16.158Z,800.96
2018-09-03T00:24:20.465Z,800.95
2018-09-03T00:24:24.561Z,800.94
2018-09-03T00:24:28.553Z,800.98
2018-09-03T00:24:32.649Z,800.95
2018-09-03T00:24:36.950Z,800.92
2018-09-03T00:24:41.153Z,800.93
2018-09-03T00:24:45.354Z,800.93
2018-09-03T00:24:49.682Z,800.92
2018-09-03T00:24:53.877Z,800.94
2018-09-03T00:24:58.078Z,800.96
2018-09-03T00:25:02.167Z,800.96
2018-09-03T00:25:06.271Z,800.97
2018-09-03T00:25:10.364Z,800.97
2018-09-03T00:25:14.673Z,800.93
2018-09-03T00:25:18.877Z,800.97
2018-09-03T00:25:23.076Z,800.95
2018-09-03T00:25:27.406Z,800.93
2018-09-03T00:25:31.502Z,800.93
2018-09-03T00:25:35.486Z,800.95
2018-09-03T00:25:39.573Z,800.95
2018-09-03T00:25:43.766Z,800.96
2018-09-03T00:25:48.069Z,800.96
2018-09-03T00:25:52.284Z,800.98
2018-09-03T00:25:56.486Z,800.97
2018-09-03T00:26:00.788Z,800.98
2018-09-03T00:26:04.784Z,800.97
2018-09-03T00:26:08.880Z,800.98
2018-09-03T00:26:12.976Z,800.98
2018-09-03T00:26:17.065Z,800.98
2018-09-03T00:26:21.265Z,800.99
2018-09-03T00:26:25.574Z,801.01
2018-09-03T00:26:29.771Z,800.99
2018-09-03T00:26:33.976Z,800.99
2018-09-03T00:26:37.852Z,800.97
2018-09-03T00:26:42.048Z,800.99
2018-09-03T00:26:46.352Z,801.01
2018-09-03T00:26:50.554Z,801
2018-09-03T00:26:54.767Z,800.99
2018-09-03T00:26:58.973Z,800.97
2018-09-03T00:27:03.378Z,801.01
2018-09-03T00:27:07.705Z,801.02
2018-09-03T00:27:11.800Z,801.05
2018-09-03T00:27:15.905Z,800.97
2018-09-03T00:27:20.107Z,801.02
2018-09-03T00:27:23.989Z,801.01
2018-09-03T00:27:28.079Z,801.04
2018-09-03T00:27:32.275Z,801.02
2018-09-03T00:27:36.470Z,801
2018-09-03T00:27:40.769Z,800.98
2018-09-03T00:27:45.079Z,801
2018-09-03T00:27:49.285Z,800.99
2018-09-03T00:27:53.594Z,801.02
2018-09-03T00:27:57.904Z,801.04
2018-09-03T00:28:02.104Z,801.04
2018-09-03T00:28:06.318Z,801.05
2018-09-03T00:28:10.518Z,801.04
2018-09-03T00:28:14.718Z,801.04
2018-09-03T00:28:19.028Z,801.05
2018-09-03T00:28:23.226Z,801.02
2018-09-03T00:28:27.422Z,801.01
2018-09-03T00:28:31.727Z,801.07
2018-09-03T00:28:35.925Z,801.05
2018-09-03T00:28:40.015Z,801.06
2018-09-03T00:28:44.216Z,801.02
2018-09-03T00:28:48.523Z,801.09
2018-09-03T00:28:52.724Z,801.07
2018-09-03T00:28:56.921Z,801.06
2018-09-03T00:29:01.109Z,801.07
2018-09-03T00:29:05.202Z,801.09
2018-09-03T00:29:09.409Z,801.09
2018-09-03T00:29:13.710Z,801.05
2018-09-03T00:29:17.704Z,801.07
2018-09-03T00:29:21.910Z,801.06
2018-09-03T00:29:25.900Z,801.07
2018-09-03T00:29:30.098Z,801.07
2018-09-03T00:29:34.312Z,801.05
2018-09-03T00:29:38.503Z,801.04
2018-09-03T00:29:42.804Z,801.02
2018-09-03T00:29:47.106Z,801.03
2018-09-03T00:29:51.319Z,801.04
2018-09-03T00:29:55.530Z,801.04
2018-09-03T00:29:59.829Z,800.96
2018-09-03T00:30:03.812Z,801.06
2018-09-03T00:30:07.800Z,801.05
2018-09-03T00:30:12.102Z,801.02
2018-09-03T00:30:16.402Z,801.03
2018-09-03T00:30:20.611Z,801.02
2018-09-03T00:30:24.807Z,801.02
2018-09-03T00:30:29.027Z,801.03
2018-09-03T00:30:33.225Z,801
2018-09-03T00:30:37.331Z,800.99
2018-09-03T00:30:41.433Z,800.98
2018-09-03T00:30:45.631Z,801.01
2018-09-03T00:30:49.823Z,800.99
2018-09-03T00:30:54.021Z,800.98
2018-09-03T00:30:58.326Z,800.99
2018-09-03T00:31:02.413Z,800.98
2018-09-03T00:31:06.603Z,800.95
2018-09-03T00:31:10.594Z,800.97
2018-09-03T00:31:14.792Z,800.96
2018-09-03T00:31:19.091Z,801.03
2018-09-03T00:31:23.179Z,800.99
2018-09-03T00:31:27.272Z,801
2018-09-03T00:31:31.468Z,801.01
2018-09-03T00:31:35.668Z,801.01
2018-09-03T00:31:39.862Z,800.97
2018-09-03T00:31:44.163Z,800.99
2018-09-03T00:31:48.355Z,801.01
2018-09-03T00:31:52.554Z,801.01
2018-09-03T00:31:56.757Z,801.02
2018-09-03T00:32:00.955Z,801.02
2018-09-03T00:32:05.152Z,801.01
2018-09-03T00:32:09.287Z,800.98
2018-09-03T00:32:13.375Z,800.99
2018-09-03T00:32:17.572Z,801
2018-09-03T00:32:21.871Z,801
2018-09-03T00:32:26.168Z,801.01
2018-09-03T00:32:30.363Z,801
2018-09-03T00:32:34.562Z,800.99
2018-09-03T00:32:38.776Z,800.99
2018-09-03T00:32:43.077Z,800.95
2018-09-03T00:32:47.276Z,800.95
2018-09-03T00:32:51.475Z,801.01
2018-09-03T00:32:55.670Z,801.02
2018-09-03T00:32:59.761Z,800.96
2018-09-03T00:33:04.057Z,800.97
2018-09-03T00:33:08.043Z,801.02
2018-09-03T00:33:12.360Z,801.01
2018-09-03T00:33:16.449Z,801.01
2018-09-03T00:33:20.754Z,801
2018-09-03T00:33:24.947Z,801
2018-09-03T00:33:29.150Z,800.98
2018-09-03T00:33:33.454Z,800.98
2018-09-03T00:33:37.760Z,800.97
2018-09-03T00:33:41.957Z,801.01
2018-09-03T00:33:46.261Z,801.02
2018-09-03T00:33:50.568Z,801
2018-09-03T00:33:54.764Z,800.98
2018-09-03T00:33:58.852Z,800.95
2018-09-03T00:34:03.053Z,800.98
2018-09-03T00:34:07.349Z,800.97
2018-09-03T00:34:11.648Z,801.02
2018-09-03T00:34:15.950Z,800.96
2018-09-03T00:34:20.146Z,800.95
2018-09-03T00:34:24.130Z,800.94
2018-09-03T00:34:28.122Z,800.97
2018-09-03T00:34:32.213Z,800.98
2018-09-03T00:34:36.525Z,800.98
2018-09-03T00:34:40.843Z,800.97
2018-09-03T00:34:44.936Z,800.98
2018-09-03T00:34:49.251Z,800.96
2018-09-03T00:34:53.357Z,800.97
2018-09-03T00:34:57.665Z,800.98
2018-09-03T00:35:01.861Z,800.96
2018-09-03T00:35:06.327Z,800.97
2018-09-03T00:35:10.525Z,800.93
2018-09-03T00:35:14.717Z,800.93
2018-09-03T00:35:18.917Z,800.96
2018-09-03T00:35:23.007Z,800.98
2018-09-03T00:35:27.312Z,800.97
2018-09-03T00:35:31.507Z,800.96
2018-09-03T00:35:35.708Z,800.99
2018-09-03T00:35:40.012Z,800.98
2018-09-03T00:35:44.313Z,800.95
2018-09-03T00:35:48.509Z,800.94
2018-09-03T00:35:52.713Z,800.98
2018-09-03T00:35:56.804Z,800.97
2018-09-03T00:36:00.996Z,801
2018-09-03T00:36:05.187Z,800.95
2018-09-03T00:36:09.292Z,800.94
2018-09-03T00:36:13.498Z,800.95
2018-09-03T00:36:17.696Z,800.96
2018-09-03T00:36:21.903Z,800.98
2018-09-03T00:36:26.111Z,800.98
2018-09-03T00:36:30.414Z,800.97
2018-09-03T00:36:34.612Z,800.97
2018-09-03T00:36:38.592Z,800.94
2018-09-03T00:36:42.890Z,800.94
2018-09-03T00:36:47.095Z,800.94
2018-09-03T00:36:51.290Z,800.97
2018-09-03T00:36:55.601Z,800.94
2018-09-03T00:36:59.792Z,800.95
2018-09-03T00:37:03.933Z,801
2018-09-03T00:37:08.131Z,800.99
2018-09-03T00:37:12.329Z,800.99
2018-09-03T00:37:16.319Z,801
2018-09-03T00:37:20.412Z,801
2018-09-03T00:37:24.617Z,800.98
2018-09-03T00:37:28.881Z,801.01
2018-09-03T00:37:32.972Z,801.02
2018-09-03T00:37:37.178Z,801.02
2018-09-03T00:37:41.381Z,800.97
2018-09-03T00:37:45.472Z,801.02
2018-09-03T00:37:49.773Z,800.97
2018-09-03T00:37:54.075Z,800.97
2018-09-03T00:37:58.376Z,800.98
2018-09-03T00:38:02.463Z,800.97
2018-09-03T00:38:06.447Z,800.95
2018-09-03T00:38:10.748Z,800.95
2018-09-03T00:38:14.943Z,800.94
2018-09-03T00:38:19.144Z,800.93
2018-09-03T00:38:23.336Z,800.94
2018-09-03T00:38:27.436Z,800.9
2018-09-03T00:38:31.528Z,800.93
2018-09-03T00:38:35.618Z,800.9
2018-09-03T00:38:39.708Z,800.92
2018-09-03T00:38:43.905Z,800.85
2018-09-03T00:38:48.105Z,800.89
2018-09-03T00:38:52.199Z,800.91
2018-09-03T00:38:56.518Z,800.91
2018-09-03T00:39:00.717Z,800.89
2018-09-03T00:39:04.914Z,800.91
2018-09-03T00:39:09.128Z,800.85
2018-09-03T00:39:13.328Z,800.91
2018-09-03T00:39:17.527Z,800.92
2018-09-03T00:39:21.843Z,800.9
2018-09-03T00:39:25.941Z,800.91
2018-09-03T00:39:30.038Z,800.91
2018-09-03T00:39:34.146Z,800.89
2018-09-03T00:39:38.345Z,800.87
2018-09-03T00:39:42.548Z,800.86
2018-09-03T00:39:46.846Z,800.88
2018-09-03T00:39:51.046Z,800.89
2018-09-03T00:39:55.236Z,800.88
2018-09-03T00:39:59.329Z,800.85
2018-09-03T00:40:03.513Z,800.9
2018-09-03T00:40:07.711Z,800.89
2018-09-03T00:40:11.906Z,800.87
2018-09-03T00:40:16.110Z,800.84
2018-09-03T00:40:20.360Z,800.81
2018-09-03T00:40:24.447Z,800.8
2018-09-03T00:40:28.749Z,800.85
2018-09-03T00:40:32.944Z,800.86
2018-09-03T00:40:37.243Z,800.82
2018-09-03T00:40:41.549Z,800.84
2018-09-03T00:40:45.846Z,800.82
2018-09-03T00:40:50.036Z,800.85
2018-09-03T00:40:54.231Z,800.84
2018-09-03T00:40:58.429Z,800.83
2018-09-03T00:41:02.632Z,800.83
2018-09-03T00:41:06.830Z,800.76
2018-09-03T00:41:11.027Z,800.82
2018-09-03T00:41:15.017Z,800.78
2018-09-03T00:41:19.327Z,800.8
2018-09-03T00:41:23.419Z,800.78
2018-09-03T00:41:27.728Z,800.78
2018-09-03T00:41:32.035Z,800.79
2018-09-03T00:41:36.344Z,800.77
2018-09-03T00:41:40.535Z,800.75
2018-09-03T00:41:44.729Z,800.75
2018-09-03T00:41:49.031Z,800.74
2018-09-03T00:41:53.017Z,800.73
2018-09-03T00:41:57.222Z,800.72
2018-09-03T00:42:01.421Z,800.71
2018-09-03T00:42:05.409Z,800.69
2018-09-03T00:42:09.501Z,800.69
2018-09-03T00:42:13.605Z,800.68
2018-09-03T00:42:17.799Z,800.7
2018-09-03T00:42:22.004Z,800.68
2018-09-03T00:42:26.204Z,800.67
2018-09-03T00:42:30.412Z,800.66
2018-09-03T00:42:34.721Z,800.66
2018-09-03T00:42:38.924Z,800.64
2018-09-03T00:42:43.020Z,800.64
2018-09-03T00:42:47.215Z,800.61
2018-09-03T00:42:51.200Z,800.63
2018-09-03T00:42:55.399Z,800.66
2018-09-03T00:42:59.608Z,800.64
2018-09-03T00:43:03.905Z,800.63
2018-09-03T00:43:08.102Z,800.59
2018-09-03T00:43:12.295Z,800.61
2018-09-03T00:43:16.505Z,800.62
2018-09-03T00:43:20.595Z,800.65
2018-09-03T00:43:24.903Z,800.6
2018-09-03T00:43:29.210Z,800.58
2018-09-03T00:43:33.404Z,800.6
2018-09-03T00:43:37.718Z,800.55
2018-09-03T00:43:42.027Z,800.63
2018-09-03T00:43:46.221Z,800.54
2018-09-03T00:43:50.211Z,800.58
2018-09-03T00:43:54.410Z,800.56
2018-09-03T00:43:58.599Z,800.53
2018-09-03T00:44:02.913Z,800.54
2018-09-03T00:44:07.121Z,800.57
2018-09-03T00:44:11.423Z,800.57
2018-09-03T00:44:15.730Z,800.56
2018-09-03T00:44:19.819Z,800.55
2018-09-03T00:44:23.906Z,800.53
2018-09-03T00:44:27.999Z,800.53
2018-09-03T00:44:32.092Z,800.52
2018-09-03T00:44:36.286Z,800.53
2018-09-03T00:44:40.484Z,800.52
2018-09-03T00:44:44.690Z,800.47
2018-09-03T00:44:48.997Z,800.53
2018-09-03T00:44:53.197Z,800.52
2018-09-03T00:44:57.501Z,800.5
2018-09-03T00:45:01.694Z,800.48
2018-09-03T00:45:05.680Z,800.48
2018-09-03T00:45:09.776Z,800.45
2018-09-03T00:45:13.992Z,800.47
2018-09-03T00:45:18.295Z,800.47
2018-09-03T00:45:22.384Z,800.45
2018-09-03T00:45:26.739Z,800.46
2018-09-03T00:45:31.044Z,800.45
2018-09-03T00:45:35.344Z,800.44
2018-09-03T00:45:39.330Z,800.45
2018-09-03T00:45:43.540Z,800.45
2018-09-03T00:45:47.845Z,800.42
2018-09-03T00:45:51.945Z,800.42
2018-09-03T00:45:56.136Z,800.43
2018-09-03T00:46:00.230Z,800.4
2018-09-03T00:46:04.373Z,800.41
2018-09-03T00:46:08.571Z,800.36
2018-09-03T00:46:12.872Z,800.37
2018-09-03T00:46:17.071Z,800.37
2018-09-03T00:46:21.271Z,800.37
2018-09-03T00:46:25.363Z,800.4
2018-09-03T00:46:29.673Z,800.35
2018-09-03T00:46:33.763Z,800.38
2018-09-03T00:46:37.854Z,800.33
2018-09-03T00:46:42.049Z,800.38
2018-09-03T00:46:46.138Z,800.37
2018-09-03T00:46:50.337Z,800.34
2018-09-03T00:46:54.319Z,800.35
2018-09-03T00:46:58.513Z,800.34
2018-09-03T00:47:02.823Z,800.32
2018-09-03T00:47:06.932Z,800.33
2018-09-03T00:47:11.133Z,800.31
2018-09-03T00:47:15.336Z,800.33
2018-09-03T00:47:19.651Z,800.31
2018-09-03T00:47:23.952Z,800.25
2018-09-03T00:47:28.142Z,800.29
2018-09-03T00:47:32.337Z,800.27
2018-09-03T00:47:36.539Z,800.27
2018-09-03T00:47:40.637Z,800.26
2018-09-03T00:47:44.827Z,800.25
2018-09-03T00:47:49.129Z,800.24
2018-09-03T00:47:53.113Z,800.22
2018-09-03T00:47:57.420Z,800.2
2018-09-03T00:48:01.720Z,800.21
2018-09-03T00:48:06.063Z,800.21
2018-09-03T00:48:10.363Z,800.15
2018-09-03T00:48:14.590Z,800.19
2018-09-03T00:48:18.789Z,800.21
2018-09-03T00:48:22.987Z,800.18
2018-09-03T00:48:27.191Z,800.12
2018-09-03T00:48:31.509Z,800.19
2018-09-03T00:48:35.605Z,800.18
2018-09-03T00:48:39.490Z,800.16
2018-09-03T00:48:43.687Z,800.15
2018-09-03T00:48:47.995Z,800.17
2018-09-03T00:48:52.199Z,800.16
2018-09-03T00:48:56.402Z,800.17
2018-09-03T00:49:00.606Z,800.11
2018-09-03T00:49:04.816Z,800.09
2018-09-03T00:49:09.134Z,800.11
2018-09-03T00:49:13.123Z,800.13
2018-09-03T00:49:17.211Z,800.14
2018-09-03T00:49:21.297Z,800.1
2018-09-03T00:49:25.516Z,800.09
2018-09-03T00:49:29.614Z,800.05
2018-09-03T00:49:33.600Z,800.09
2018-09-03T00:49:37.913Z,800.07
2018-09-03T00:49:42.107Z,800.1
2018-09-03T00:49:46.307Z,800.08
2018-09-03T00:49:50.638Z,800.07
2018-09-03T00:49:54.958Z,800.08
2018-09-03T00:49:59.158Z,800.07
2018-09-03T00:50:03.353Z,800.07
2018-09-03T00:50:07.233Z,800.08
2018-09-03T00:50:11.434Z,800.05
2018-09-03T00:50:15.528Z,800.03
2018-09-03T00:50:19.722Z,800.07
2018-09-03T00:50:23.929Z,800.08
2018-09-03T00:50:27.913Z,800.07
2018-09-03T00:50:32.000Z,800.08
2018-09-03T00:50:36.199Z,800.03
2018-09-03T00:50:40.399Z,800.08
2018-09-03T00:50:44.699Z,800.03
2018-09-03T00:50:48.900Z,800.02
2018-09-03T00:50:53.103Z,800.07
2018-09-03T00:50:57.326Z,800.04
2018-09-03T00:51:01.318Z,800.02
2018-09-03T00:51:05.455Z,800.04
2018-09-03T00:51:09.762Z,800.02
2018-09-03T00:51:14.069Z,800.03
2018-09-03T00:51:18.160Z,800.04
2018-09-03T00:51:22.365Z,799.98
2018-09-03T00:51:26.670Z,799.97
2018-09-03T00:51:30.867Z,800.03
2018-09-03T00:51:34.961Z,799.97
2018-09-03T00:51:39.158Z,799.99
2018-09-03T00:51:43.461Z,800.01
2018-09-03T00:51:47.555Z,799.99
2018-09-03T00:51:51.751Z,799.98
2018-09-03T00:51:55.946Z,799.98
2018-09-03T00:52:00.255Z,799.98
2018-09-03T00:52:04.502Z,800.01
2018-09-03T00:52:08.752Z,799.98
2018-09-03T00:52:13.051Z,799.96
2018-09-03T00:52:17.242Z,799.99
2018-09-03T00:52:21.438Z,799.96